Guion, Arkansas
Current Conditions -  °F | °C
As of 12:35 AM on Tuesday 21 Oct 2014 (Local Time) from KBVX Reporting Station
Clear Clear  
Wind Chill: 57°   Ceiling: Unl
Heat Index: 57°   Visibility: 10mi
Dew Point: 55°   Wind: 3mph
Humidity: 94%   Direction: 290°WNW
Pressure: 30.03"   Gusts: NA
Location:  35.93°N, 91.94°W
Report Text: KBVX 210535Z AUTO 29003KT 10SM CLR 14/13 A3003 RMK AO1
Loading
Personal Weather Stations






























Interactive Weather Map
Tropical Storm Tracking
New forecast layout! Learn more

10-Day Weather Forecast

Advertisements
Track Severe Weather on mobile